ONE6682 SBFI-SBSP
Flight info
| Callsign | ONE6682 |
|---|---|
| Flight time | 1h 13m |
| Altitude | 37000 |
| Route | KAMIL UM548 DOSMU DCT ANISE |
| Aircraft | A319/M-SDE3FGHIRWY/LB1 |
Departure
| Time | 2026-04-20 11:48 |
|---|---|
| Airport | Cataratas International Airport (SBFI) |
Arrival
| Time | 2026-04-20 13:02 |
|---|---|
| Airport | Congonhas–Deputado Freitas Nobre Airport (SBSP) |
| Time | Latitude | Longitude | Altitude | Speed | Heading |
|---|---|---|---|---|---|
| 2026-04-20 11:17 | -25.59763 | -54.48776 | 798 ft | 0 kts | 221° |
| 2026-04-20 11:39 | -25.59755 | -54.48768 | 798 ft | 3 kts | 220° |
| 2026-04-20 11:39 | -25.59739 | -54.48753 | 798 ft | 3 kts | 220° |
| 2026-04-20 11:39 | -25.59725 | -54.48737 | 798 ft | 3 kts | 250° |
| 2026-04-20 11:39 | -25.59727 | -54.48716 | 798 ft | 3 kts | 315° |
| 2026-04-20 11:40 | -25.59731 | -54.48711 | 798 ft | 0 kts | 315° |
| 2026-04-20 11:43 | -25.59719 | -54.48725 | 798 ft | 5 kts | 312° |
| 2026-04-20 11:43 | -25.59688 | -54.48763 | 798 ft | 9 kts | 310° |
| 2026-04-20 11:44 | -25.59644 | -54.48824 | 798 ft | 10 kts | 311° |
| 2026-04-20 11:44 | -25.59592 | -54.48891 | 799 ft | 13 kts | 310° |
| 2026-04-20 11:44 | -25.59535 | -54.48932 | 799 ft | 4 kts | 16° |
| 2026-04-20 11:44 | -25.59509 | -54.48913 | 801 ft | 3 kts | 39° |
| 2026-04-20 11:45 | -25.59487 | -54.48895 | 801 ft | 6 kts | 30° |
| 2026-04-20 11:45 | -25.59447 | -54.48908 | 801 ft | 8 kts | 314° |
| 2026-04-20 11:45 | -25.59400 | -54.48966 | 800 ft | 12 kts | 311° |
| 2026-04-20 11:45 | -25.59332 | -54.49050 | 799 ft | 17 kts | 312° |
| 2026-04-20 11:46 | -25.59251 | -54.49155 | 800 ft | 19 kts | 311° |
| 2026-04-20 11:46 | -25.59159 | -54.49272 | 796 ft | 21 kts | 311° |
| 2026-04-20 11:46 | -25.59060 | -54.49399 | 797 ft | 22 kts | 311° |
| 2026-04-20 11:46 | -25.58975 | -54.49488 | 796 ft | 16 kts | 342° |
| 2026-04-20 11:47 | -25.58932 | -54.49544 | 796 ft | 8 kts | 218° |
| 2026-04-20 11:47 | -25.58969 | -54.49520 | 796 ft | 8 kts | 112° |
| 2026-04-20 11:47 | -25.59002 | -54.49471 | 796 ft | 8 kts | 133° |
| 2026-04-20 11:47 | -25.59116 | -54.49333 | 796 ft | 62 kts | 131° |
| 2026-04-20 11:48 | -25.59590 | -54.48722 | 798 ft | 144 kts | 131° |
| 2026-04-20 11:48 | -25.60330 | -54.47793 | 1428 ft | 154 kts | 130° |
| 2026-04-20 11:48 | -25.61029 | -54.46920 | 2474 ft | 149 kts | 126° |
| 2026-04-20 11:48 | -25.61707 | -54.46058 | 3217 ft | 153 kts | 123° |
| 2026-04-20 11:49 | -25.62429 | -54.45091 | 3751 ft | 172 kts | 124° |
| 2026-04-20 11:49 | -25.63230 | -54.44029 | 4265 ft | 190 kts | 125° |
| 2026-04-20 11:49 | -25.64129 | -54.42858 | 4761 ft | 210 kts | 126° |
| 2026-04-20 11:49 | -25.65134 | -54.41562 | 5195 ft | 234 kts | 127° |
| 2026-04-20 11:50 | -25.66210 | -54.40146 | 5968 ft | 245 kts | 121° |
| 2026-04-20 11:50 | -25.66822 | -54.38328 | 6606 ft | 260 kts | 91° |
| 2026-04-20 11:50 | -25.66547 | -54.36300 | 7154 ft | 276 kts | 66° |
| 2026-04-20 11:50 | -25.65780 | -54.34316 | 7986 ft | 283 kts | 65° |
| 2026-04-20 11:51 | -25.65092 | -54.32241 | 8925 ft | 289 kts | 71° |
| 2026-04-20 11:51 | -25.64597 | -54.30071 | 9821 ft | 296 kts | 77° |
| 2026-04-20 11:51 | -25.64239 | -54.27785 | 10516 ft | 310 kts | 80° |
| 2026-04-20 11:51 | -25.63945 | -54.25329 | 10875 ft | 334 kts | 82° |
| 2026-04-20 11:52 | -25.63670 | -54.22689 | 11350 ft | 351 kts | 82° |
| 2026-04-20 11:52 | -25.63399 | -54.19997 | 12198 ft | 355 kts | 82° |
| 2026-04-20 11:52 | -25.63121 | -54.17274 | 13067 ft | 359 kts | 82° |
| 2026-04-20 11:52 | -25.62830 | -54.14480 | 13910 ft | 363 kts | 82° |
| 2026-04-20 11:53 | -25.62534 | -54.11699 | 14637 ft | 368 kts | 82° |
| 2026-04-20 11:53 | -25.62233 | -54.08871 | 15362 ft | 373 kts | 82° |
| 2026-04-20 11:53 | -25.61923 | -54.05992 | 16079 ft | 378 kts | 82° |
| 2026-04-20 11:53 | -25.61609 | -54.03078 | 16786 ft | 383 kts | 82° |
| 2026-04-20 11:54 | -25.61289 | -54.00117 | 17485 ft | 388 kts | 82° |
| 2026-04-20 11:54 | -25.60965 | -53.97128 | 18174 ft | 394 kts | 82° |
| 2026-04-20 11:54 | -25.60637 | -53.94103 | 18791 ft | 398 kts | 82° |
| 2026-04-20 11:54 | -25.60303 | -53.91039 | 19419 ft | 402 kts | 82° |
| 2026-04-20 11:55 | -25.59965 | -53.87947 | 20019 ft | 407 kts | 82° |
| 2026-04-20 11:55 | -25.59623 | -53.84817 | 20633 ft | 411 kts | 82° |
| 2026-04-20 11:55 | -25.59277 | -53.81659 | 21235 ft | 415 kts | 82° |
| 2026-04-20 11:55 | -25.58936 | -53.78460 | 21835 ft | 420 kts | 84° |
| 2026-04-20 11:56 | -25.58750 | -53.75204 | 22429 ft | 425 kts | 88° |
| 2026-04-20 11:56 | -25.58750 | -53.71907 | 23024 ft | 430 kts | 90° |
| 2026-04-20 11:56 | -25.58779 | -53.68626 | 23605 ft | 434 kts | 90° |
| 2026-04-20 11:56 | -25.58802 | -53.65264 | 24100 ft | 438 kts | 90° |
| 2026-04-20 11:57 | -25.58821 | -53.61873 | 24586 ft | 442 kts | 90° |
| 2026-04-20 11:57 | -25.58839 | -53.58451 | 25085 ft | 446 kts | 90° |
| 2026-04-20 11:57 | -25.58857 | -53.54988 | 25536 ft | 451 kts | 91° |
| 2026-04-20 11:57 | -25.58875 | -53.51502 | 26011 ft | 454 kts | 91° |
| 2026-04-20 11:58 | -25.58893 | -53.47990 | 26451 ft | 458 kts | 91° |
| 2026-04-20 11:58 | -25.58910 | -53.44446 | 26909 ft | 462 kts | 91° |
| 2026-04-20 11:58 | -25.58926 | -53.40864 | 27334 ft | 466 kts | 91° |
| 2026-04-20 11:58 | -25.58943 | -53.37257 | 27755 ft | 470 kts | 91° |
| 2026-04-20 11:59 | -25.58958 | -53.33624 | 28168 ft | 473 kts | 91° |
| 2026-04-20 11:59 | -25.58972 | -53.29960 | 28582 ft | 477 kts | 91° |
| 2026-04-20 11:59 | -25.58986 | -53.26262 | 28964 ft | 481 kts | 91° |
| 2026-04-20 11:59 | -25.58998 | -53.22541 | 29370 ft | 484 kts | 92° |
| 2026-04-20 12:00 | -25.59010 | -53.18791 | 29737 ft | 488 kts | 92° |
| 2026-04-20 12:00 | -25.59021 | -53.15063 | 30121 ft | 492 kts | 92° |
| 2026-04-20 12:00 | -25.59031 | -53.11263 | 30449 ft | 495 kts | 92° |
| 2026-04-20 12:00 | -25.59041 | -53.07429 | 30778 ft | 499 kts | 92° |
| 2026-04-20 12:01 | -25.59050 | -53.03577 | 31123 ft | 502 kts | 92° |
| 2026-04-20 12:01 | -25.59057 | -52.99706 | 31513 ft | 503 kts | 92° |
| 2026-04-20 12:01 | -25.59062 | -52.95829 | 31934 ft | 504 kts | 92° |
| 2026-04-20 12:01 | -25.59068 | -52.91939 | 32359 ft | 505 kts | 92° |
| 2026-04-20 12:02 | -25.59073 | -52.88050 | 32794 ft | 505 kts | 92° |
| 2026-04-20 12:02 | -25.59077 | -52.84156 | 33228 ft | 505 kts | 92° |
| 2026-04-20 12:02 | -25.59081 | -52.80255 | 33646 ft | 505 kts | 92° |
| 2026-04-20 12:02 | -25.59083 | -52.76413 | 34044 ft | 506 kts | 92° |
| 2026-04-20 12:03 | -25.59083 | -52.72520 | 34413 ft | 506 kts | 92° |
| 2026-04-20 12:03 | -25.59083 | -52.68633 | 34811 ft | 504 kts | 92° |
| 2026-04-20 12:03 | -25.59081 | -52.64747 | 35198 ft | 503 kts | 92° |
| 2026-04-20 12:03 | -25.59079 | -52.60867 | 35569 ft | 502 kts | 92° |
| 2026-04-20 12:04 | -25.59076 | -52.56996 | 35915 ft | 502 kts | 92° |
| 2026-04-20 12:04 | -25.59071 | -52.53125 | 36268 ft | 501 kts | 92° |
| 2026-04-20 12:04 | -25.59066 | -52.49268 | 36620 ft | 501 kts | 92° |
| 2026-04-20 12:04 | -25.59059 | -52.45410 | 36956 ft | 500 kts | 92° |
| 2026-04-20 12:05 | -25.59051 | -52.41559 | 37107 ft | 500 kts | 92° |
| 2026-04-20 12:05 | -25.59042 | -52.37715 | 37101 ft | 498 kts | 92° |
| 2026-04-20 12:05 | -25.59022 | -52.30047 | 37111 ft | 497 kts | 92° |
| 2026-04-20 12:06 | -25.58997 | -52.22377 | 37114 ft | 497 kts | 92° |
| 2026-04-20 12:06 | -25.58969 | -52.14769 | 37114 ft | 497 kts | 92° |
| 2026-04-20 12:07 | -25.58936 | -52.07120 | 37119 ft | 496 kts | 92° |
| 2026-04-20 12:07 | -25.58899 | -51.99470 | 37124 ft | 496 kts | 92° |
| 2026-04-20 12:08 | -25.58858 | -51.91822 | 37136 ft | 496 kts | 92° |
| 2026-04-20 12:08 | -25.58821 | -51.85468 | 37137 ft | 496 kts | 92° |
| 2026-04-20 12:09 | -25.58773 | -51.77816 | 37140 ft | 496 kts | 92° |
| 2026-04-20 12:09 | -25.58721 | -51.70163 | 37155 ft | 496 kts | 92° |
| 2026-04-20 12:10 | -25.58666 | -51.62522 | 37162 ft | 496 kts | 92° |
| 2026-04-20 12:10 | -25.58606 | -51.54884 | 37170 ft | 496 kts | 92° |
| 2026-04-20 12:11 | -25.58542 | -51.47294 | 37174 ft | 495 kts | 92° |
| 2026-04-20 12:11 | -25.58475 | -51.39670 | 37176 ft | 495 kts | 92° |
| 2026-04-20 12:12 | -25.58405 | -51.32041 | 37181 ft | 495 kts | 92° |
| 2026-04-20 12:12 | -25.58332 | -51.24428 | 37180 ft | 494 kts | 92° |
| 2026-04-20 12:13 | -25.58255 | -51.16820 | 37176 ft | 493 kts | 92° |
| 2026-04-20 12:13 | -25.58175 | -51.09220 | 37177 ft | 493 kts | 92° |
| 2026-04-20 12:14 | -25.58090 | -51.01622 | 37176 ft | 493 kts | 92° |
| 2026-04-20 12:14 | -25.57999 | -50.94074 | 37171 ft | 492 kts | 92° |
| 2026-04-20 12:15 | -25.57902 | -50.86504 | 37172 ft | 492 kts | 92° |
| 2026-04-20 12:15 | -25.57801 | -50.78926 | 37172 ft | 491 kts | 92° |
| 2026-04-20 12:16 | -25.57698 | -50.71361 | 37170 ft | 491 kts | 92° |
| 2026-04-20 12:16 | -25.57590 | -50.63784 | 37169 ft | 491 kts | 92° |
| 2026-04-20 12:17 | -25.57478 | -50.56215 | 37166 ft | 491 kts | 92° |
| 2026-04-20 12:17 | -25.57364 | -50.48694 | 37169 ft | 491 kts | 92° |
| 2026-04-20 12:18 | -25.57244 | -50.41135 | 37170 ft | 491 kts | 92° |
| 2026-04-20 12:18 | -25.57121 | -50.33573 | 37175 ft | 491 kts | 92° |
| 2026-04-20 12:19 | -25.56993 | -50.25956 | 37175 ft | 491 kts | 92° |
| 2026-04-20 12:19 | -25.56862 | -50.18392 | 37176 ft | 491 kts | 92° |
| 2026-04-20 12:20 | -25.56728 | -50.10836 | 37177 ft | 491 kts | 92° |
| 2026-04-20 12:20 | -25.56581 | -50.03327 | 37175 ft | 491 kts | 91° |
| 2026-04-20 12:21 | -25.56257 | -49.95774 | 37177 ft | 491 kts | 90° |
| 2026-04-20 12:21 | -25.55914 | -49.88181 | 37177 ft | 490 kts | 90° |
| 2026-04-20 12:22 | -25.55591 | -49.80683 | 37174 ft | 490 kts | 90° |
| 2026-04-20 12:22 | -25.55269 | -49.73153 | 37170 ft | 489 kts | 90° |
| 2026-04-20 12:23 | -25.54943 | -49.65631 | 37173 ft | 489 kts | 90° |
| 2026-04-20 12:23 | -25.54612 | -49.58115 | 37170 ft | 488 kts | 90° |
| 2026-04-20 12:24 | -25.54277 | -49.50607 | 37181 ft | 488 kts | 90° |
| 2026-04-20 12:24 | -25.53950 | -49.43351 | 37188 ft | 487 kts | 90° |
| 2026-04-20 12:25 | -25.53673 | -49.35859 | 37194 ft | 486 kts | 92° |
| 2026-04-20 12:25 | -25.53504 | -49.28380 | 37206 ft | 486 kts | 92° |
| 2026-04-20 12:26 | -25.53293 | -49.20944 | 37206 ft | 486 kts | 90° |
| 2026-04-20 12:26 | -25.52591 | -49.13435 | 37206 ft | 488 kts | 84° |
| 2026-04-20 12:27 | -25.51372 | -49.06072 | 37202 ft | 489 kts | 82° |
| 2026-04-20 12:27 | -25.50105 | -48.98622 | 37191 ft | 489 kts | 82° |
| 2026-04-20 12:28 | -25.48845 | -48.91231 | 37176 ft | 489 kts | 82° |
| 2026-04-20 12:28 | -25.47578 | -48.83842 | 37161 ft | 488 kts | 82° |
| 2026-04-20 12:29 | -25.46303 | -48.76467 | 37143 ft | 488 kts | 82° |
| 2026-04-20 12:29 | -25.45021 | -48.69079 | 37148 ft | 488 kts | 82° |
| 2026-04-20 12:30 | -25.43750 | -48.61752 | 37141 ft | 488 kts | 82° |
| 2026-04-20 12:30 | -25.42468 | -48.54378 | 37137 ft | 488 kts | 82° |
| 2026-04-20 12:31 | -25.41181 | -48.47009 | 37134 ft | 488 kts | 82° |
| 2026-04-20 12:31 | -25.39894 | -48.39657 | 37132 ft | 487 kts | 82° |
| 2026-04-20 12:32 | -25.38598 | -48.32294 | 37130 ft | 487 kts | 82° |
| 2026-04-20 12:32 | -25.37303 | -48.24949 | 37130 ft | 487 kts | 82° |
| 2026-04-20 12:33 | -25.36005 | -48.17595 | 37128 ft | 487 kts | 82° |
| 2026-04-20 12:33 | -25.34705 | -48.10254 | 37124 ft | 486 kts | 82° |
| 2026-04-20 12:34 | -25.33403 | -48.02920 | 37122 ft | 486 kts | 82° |
| 2026-04-20 12:34 | -25.32097 | -47.95591 | 37116 ft | 486 kts | 82° |
| 2026-04-20 12:35 | -25.30792 | -47.88267 | 37114 ft | 486 kts | 82° |
| 2026-04-20 12:35 | -25.29482 | -47.80949 | 37125 ft | 485 kts | 82° |
| 2026-04-20 12:36 | -25.28176 | -47.73685 | 37114 ft | 485 kts | 82° |
| 2026-04-20 12:36 | -25.26859 | -47.66377 | 37120 ft | 485 kts | 82° |
| 2026-04-20 12:37 | -25.25536 | -47.59061 | 37120 ft | 484 kts | 82° |
| 2026-04-20 12:37 | -25.24210 | -47.51761 | 37119 ft | 484 kts | 81° |
| 2026-04-20 12:38 | -25.21922 | -47.44744 | 37109 ft | 490 kts | 63° |
| 2026-04-20 12:38 | -25.18001 | -47.38587 | 37117 ft | 492 kts | 51° |
| 2026-04-20 12:39 | -25.11432 | -47.29891 | 37103 ft | 491 kts | 51° |
| 2026-04-20 12:39 | -25.09242 | -47.26988 | 36949 ft | 492 kts | 51° |
| 2026-04-20 12:40 | -25.07051 | -47.24087 | 36701 ft | 491 kts | 51° |
| 2026-04-20 12:40 | -25.04896 | -47.21237 | 36457 ft | 490 kts | 51° |
| 2026-04-20 12:40 | -25.02712 | -47.18351 | 36213 ft | 490 kts | 51° |
| 2026-04-20 12:40 | -25.00494 | -47.15422 | 35740 ft | 492 kts | 51° |
| 2026-04-20 12:41 | -24.98319 | -47.12552 | 35067 ft | 495 kts | 50° |
| 2026-04-20 12:41 | -24.96105 | -47.09631 | 34234 ft | 499 kts | 50° |
| 2026-04-20 12:41 | -24.93839 | -47.06644 | 33229 ft | 503 kts | 50° |
| 2026-04-20 12:41 | -24.91615 | -47.03716 | 32225 ft | 505 kts | 51° |
| 2026-04-20 12:42 | -24.89361 | -47.00752 | 31383 ft | 503 kts | 51° |
| 2026-04-20 12:42 | -24.87134 | -46.97824 | 30880 ft | 495 kts | 51° |
| 2026-04-20 12:42 | -24.84933 | -46.94933 | 30284 ft | 490 kts | 51° |
| 2026-04-20 12:42 | -24.82756 | -46.92074 | 29612 ft | 484 kts | 51° |
| 2026-04-20 12:43 | -24.80604 | -46.89250 | 29021 ft | 477 kts | 51° |
| 2026-04-20 12:43 | -24.78488 | -46.86473 | 28432 ft | 471 kts | 51° |
| 2026-04-20 12:43 | -24.76394 | -46.83727 | 27841 ft | 465 kts | 51° |
| 2026-04-20 12:43 | -24.74328 | -46.81019 | 27271 ft | 460 kts | 51° |
| 2026-04-20 12:44 | -24.72281 | -46.78336 | 26697 ft | 455 kts | 51° |
| 2026-04-20 12:44 | -24.70257 | -46.75687 | 26130 ft | 451 kts | 51° |
| 2026-04-20 12:44 | -24.68250 | -46.73059 | 25558 ft | 447 kts | 52° |
| 2026-04-20 12:44 | -24.66247 | -46.70439 | 25005 ft | 443 kts | 52° |
| 2026-04-20 12:45 | -24.64273 | -46.67859 | 24444 ft | 440 kts | 52° |
| 2026-04-20 12:45 | -24.62197 | -46.65385 | 23838 ft | 440 kts | 43° |
| 2026-04-20 12:45 | -24.59701 | -46.63485 | 22995 ft | 445 kts | 27° |
| 2026-04-20 12:45 | -24.56809 | -46.62312 | 22448 ft | 440 kts | 12° |
| 2026-04-20 12:46 | -24.53807 | -46.61978 | 22154 ft | 429 kts | 359° |
| 2026-04-20 12:46 | -24.50831 | -46.62111 | 21641 ft | 427 kts | 355° |
| 2026-04-20 12:46 | -24.47879 | -46.62318 | 21100 ft | 423 kts | 355° |
| 2026-04-20 12:46 | -24.44952 | -46.62467 | 20556 ft | 420 kts | 357° |
| 2026-04-20 12:47 | -24.42041 | -46.62547 | 20016 ft | 416 kts | 358° |
| 2026-04-20 12:47 | -24.39154 | -46.62581 | 19485 ft | 413 kts | 359° |
| 2026-04-20 12:47 | -24.36270 | -46.62591 | 18731 ft | 417 kts | 359° |
| 2026-04-20 12:47 | -24.33373 | -46.62591 | 18142 ft | 415 kts | 359° |
| 2026-04-20 12:48 | -24.30521 | -46.62589 | 17778 ft | 405 kts | 359° |
| 2026-04-20 12:48 | -24.27714 | -46.62587 | 17256 ft | 401 kts | 359° |
| 2026-04-20 12:48 | -24.24923 | -46.62587 | 16718 ft | 398 kts | 359° |
| 2026-04-20 12:48 | -24.22162 | -46.62588 | 16189 ft | 395 kts | 359° |
| 2026-04-20 12:49 | -24.19399 | -46.62590 | 15403 ft | 399 kts | 359° |
| 2026-04-20 12:49 | -24.17559 | -46.62591 | 14961 ft | 400 kts | 359° |
| 2026-04-20 12:49 | -24.14788 | -46.62592 | 14555 ft | 394 kts | 359° |
| 2026-04-20 12:49 | -24.12048 | -46.62593 | 14234 ft | 385 kts | 359° |
| 2026-04-20 12:50 | -24.09374 | -46.62594 | 13707 ft | 384 kts | 359° |
| 2026-04-20 12:50 | -24.06711 | -46.62595 | 13183 ft | 381 kts | 360° |
| 2026-04-20 12:50 | -24.04080 | -46.62597 | 12680 ft | 376 kts | 360° |
| 2026-04-20 12:50 | -24.01471 | -46.62598 | 12182 ft | 373 kts | 360° |
| 2026-04-20 12:51 | -23.99752 | -46.62599 | 11866 ft | 371 kts | 360° |
| 2026-04-20 12:51 | -23.98140 | -46.62600 | 11558 ft | 368 kts | 360° |
| 2026-04-20 12:51 | -23.95585 | -46.62601 | 11062 ft | 366 kts | 360° |
| 2026-04-20 12:52 | -23.93055 | -46.62603 | 10579 ft | 362 kts | 360° |
| 2026-04-20 12:52 | -23.90571 | -46.62604 | 10389 ft | 348 kts | 360° |
| 2026-04-20 12:52 | -23.88223 | -46.62604 | 10223 ft | 328 kts | 360° |
| 2026-04-20 12:52 | -23.86020 | -46.62844 | 10059 ft | 311 kts | 344° |
| 2026-04-20 12:53 | -23.84039 | -46.63720 | 9935 ft | 309 kts | 328° |
| 2026-04-20 12:53 | -23.82208 | -46.64987 | 9610 ft | 313 kts | 326° |
| 2026-04-20 12:53 | -23.80379 | -46.66265 | 9273 ft | 311 kts | 326° |
| 2026-04-20 12:53 | -23.78560 | -46.67531 | 9191 ft | 299 kts | 326° |
| 2026-04-20 12:54 | -23.76842 | -46.68723 | 9192 ft | 286 kts | 326° |
| 2026-04-20 12:54 | -23.75202 | -46.69861 | 9204 ft | 272 kts | 326° |
| 2026-04-20 12:54 | -23.73613 | -46.70963 | 9214 ft | 281 kts | 326° |
| 2026-04-20 12:54 | -23.71911 | -46.72146 | 9200 ft | 293 kts | 326° |
| 2026-04-20 12:55 | -23.70194 | -46.73336 | 9119 ft | 290 kts | 326° |
| 2026-04-20 12:55 | -23.68496 | -46.74512 | 8751 ft | 289 kts | 326° |
| 2026-04-20 12:55 | -23.66807 | -46.75683 | 8315 ft | 287 kts | 327° |
| 2026-04-20 12:55 | -23.65146 | -46.76833 | 7864 ft | 285 kts | 327° |
| 2026-04-20 12:56 | -23.63449 | -46.78007 | 7403 ft | 283 kts | 327° |
| 2026-04-20 12:56 | -23.61808 | -46.79145 | 6961 ft | 282 kts | 327° |
| 2026-04-20 12:56 | -23.60153 | -46.80290 | 6562 ft | 281 kts | 327° |
| 2026-04-20 12:56 | -23.58461 | -46.81320 | 6148 ft | 278 kts | 342° |
| 2026-04-20 12:57 | -23.56594 | -46.81511 | 5947 ft | 264 kts | 12° |
| 2026-04-20 12:57 | -23.54990 | -46.80754 | 5825 ft | 244 kts | 44° |
| 2026-04-20 12:57 | -23.53992 | -46.79367 | 5694 ft | 226 kts | 64° |
| 2026-04-20 12:57 | -23.53287 | -46.77869 | 5505 ft | 218 kts | 67° |
| 2026-04-20 12:58 | -23.52601 | -46.76397 | 5261 ft | 217 kts | 65° |
| 2026-04-20 12:58 | -23.51975 | -46.74961 | 5137 ft | 204 kts | 82° |
| 2026-04-20 12:58 | -23.52124 | -46.73510 | 4919 ft | 192 kts | 121° |
| 2026-04-20 12:58 | -23.52969 | -46.72415 | 4697 ft | 187 kts | 142° |
| 2026-04-20 12:59 | -23.53989 | -46.71641 | 4478 ft | 171 kts | 149° |
| 2026-04-20 12:59 | -23.54969 | -46.70993 | 4260 ft | 160 kts | 147° |
| 2026-04-20 12:59 | -23.55881 | -46.70353 | 4083 ft | 150 kts | 148° |
| 2026-04-20 12:59 | -23.56726 | -46.69766 | 3904 ft | 137 kts | 147° |
| 2026-04-20 13:00 | -23.57490 | -46.69237 | 3728 ft | 126 kts | 147° |
| 2026-04-20 13:00 | -23.58248 | -46.68711 | 3569 ft | 131 kts | 147° |
| 2026-04-20 13:00 | -23.59027 | -46.68170 | 3395 ft | 133 kts | 147° |
| 2026-04-20 13:00 | -23.59803 | -46.67634 | 3212 ft | 130 kts | 147° |
| 2026-04-20 13:01 | -23.60571 | -46.67099 | 3030 ft | 127 kts | 147° |
| 2026-04-20 13:01 | -23.61327 | -46.66573 | 2856 ft | 126 kts | 147° |
| 2026-04-20 13:01 | -23.62065 | -46.66063 | 2648 ft | 127 kts | 147° |
| 2026-04-20 13:01 | -23.62718 | -46.65615 | 2612 ft | 70 kts | 149° |
| 2026-04-20 13:02 | -23.62893 | -46.65511 | 2611 ft | 0 kts | 172° |
| 2026-04-20 13:02 | -23.62923 | -46.65516 | 2613 ft | 13 kts | 206° |
| 2026-04-20 13:02 | -23.62910 | -46.65597 | 2621 ft | 5 kts | 360° |
| 2026-04-20 13:02 | -23.62888 | -46.65600 | 2621 ft | 8 kts | 348° |
| 2026-04-20 13:03 | -23.62827 | -46.65646 | 2621 ft | 13 kts | 323° |
| 2026-04-20 13:03 | -23.62746 | -46.65701 | 2620 ft | 13 kts | 334° |
| 2026-04-20 13:03 | -23.62667 | -46.65754 | 2620 ft | 15 kts | 327° |
| 2026-04-20 13:03 | -23.62596 | -46.65815 | 2620 ft | 7 kts | 278° |
| 2026-04-20 13:04 | -23.62612 | -46.65846 | 2622 ft | 5 kts | 238° |
| 2026-04-20 13:04 | -23.62629 | -46.65875 | 2623 ft | 4 kts | 237° |
| 2026-04-20 13:04 | -23.62633 | -46.65882 | 2623 ft | 0 kts | 237° |